Time;durP1;ratioP1;P1;durP2;ratioP2;P2;SDS_P1;SDS_P2;PMS_P1;PMS_P2;Temp;Humidity;BMP_temperature;BMP_pressure;BME280_temperature;BME280_humidity;BME280_pressure;Samples;Min_cycle;Max_cycle;Signal;HPM_P1;HPM_P2
2020/12/10 00:01:51;;;;;;;59.00;33.20;;;;;;;2.66;87.84;100749.59;5040996;28;20221;-79
2020/12/10 00:04:20;;;;;;;58.87;32.10;;;;;;;2.84;86.50;100748.59;5041405;28;20246;-84
2020/12/10 00:06:45;;;;;;;61.83;33.57;;;;;;;2.66;88.00;100744.44;5040997;28;20591;-78
2020/12/10 00:09:10;;;;;;;58.50;31.50;;;;;;;2.62;87.53;100745.13;5040888;28;20417;-81
2020/12/10 00:11:36;;;;;;;67.17;33.83;;;;;;;2.66;87.75;100748.72;5041671;28;20197;-81
2020/12/10 00:14:04;;;;;;;63.27;34.50;;;;;;;2.67;87.57;100740.19;5041170;28;20182;-82
2020/12/10 00:16:31;;;;;;;76.77;35.10;;;;;;;2.59;87.55;100745.00;5041035;28;20166;-79
2020/12/10 00:18:56;;;;;;;63.90;34.67;;;;;;;2.78;87.39;100740.63;5040465;28;20484;-82
2020/12/10 00:21:22;;;;;;;65.83;34.00;;;;;;;2.88;86.33;100745.31;5040753;28;20555;-79
2020/12/10 00:23:48;;;;;;;68.67;35.40;;;;;;;2.93;86.85;100748.09;5041003;28;20272;-75
2020/12/10 00:26:14;;;;;;;73.20;36.50;;;;;;;2.74;87.59;100747.34;5040482;28;20421;-76
2020/12/10 00:28:39;;;;;;;63.67;36.90;;;;;;;2.62;88.33;100747.69;5039825;28;20521;-76
2020/12/10 00:31:05;;;;;;;68.40;35.43;;;;;;;2.98;87.14;100737.16;5040094;28;20540;-76
2020/12/10 00:33:30;;;;;;;87.57;37.33;;;;;;;2.99;86.65;100733.78;5040606;28;20253;-79
2020/12/10 00:35:55;;;;;;;70.70;36.30;;;;;;;2.58;87.58;100735.53;5039978;28;20244;-78
2020/12/10 00:38:21;;;;;;;78.63;37.60;;;;;;;2.81;87.67;100733.03;5040201;28;20182;-80
2020/12/10 00:40:46;;;;;;;74.07;37.57;;;;;;;2.67;87.41;100730.75;5040148;28;20181;-77
2020/12/10 00:43:11;;;;;;;72.00;37.03;;;;;;;2.66;88.26;100731.56;5040133;28;20536;-79
2020/12/10 00:45:37;;;;;;;73.53;36.67;;;;;;;2.43;88.48;100735.75;5040391;28;20537;-79
2020/12/10 00:48:02;;;;;;;77.73;41.20;;;;;;;2.73;87.67;100731.84;5040311;28;20643;-79
2020/12/10 00:50:27;;;;;;;76.77;38.17;;;;;;;2.81;87.09;100725.31;5040079;28;20295;-77
2020/12/10 00:52:53;;;;;;;82.43;40.63;;;;;;;2.66;87.54;100729.00;5039614;28;20197;-73
2020/12/10 00:55:18;;;;;;;76.30;39.03;;;;;;;2.57;88.29;100727.75;5039628;28;20198;-74
2020/12/10 00:57:43;;;;;;;79.20;38.90;;;;;;;2.32;88.91;100729.28;5039302;28;20505;-73
2020/12/10 01:00:09;;;;;;;86.00;40.07;;;;;;;2.64;88.48;100724.63;5039033;28;20442;-74
2020/12/10 01:02:35;;;;;;;76.63;37.20;;;;;;;2.72;86.56;100720.66;5039989;28;20558;-76
2020/12/10 01:05:00;;;;;;;82.23;38.67;;;;;;;2.74;86.85;100720.72;5038624;28;20508;-78
2020/12/10 01:07:26;;;;;;;70.80;35.17;;;;;;;2.57;88.10;100725.16;5039946;28;20214;-80
2020/12/10 01:09:51;;;;;;;73.43;37.27;;;;;;;2.52;87.64;100727.56;5040072;28;20170;-78
2020/12/10 01:12:16;;;;;;;76.13;38.73;;;;;;;2.56;87.63;100723.41;5038617;28;20194;-78
2020/12/10 01:14:42;;;;;;;76.03;37.97;;;;;;;2.63;87.98;100722.84;5039867;28;20174;-76
2020/12/10 01:17:07;;;;;;;70.53;37.30;;;;;;;2.62;87.70;100728.81;5039986;28;20169;-78
2020/12/10 01:19:32;;;;;;;78.67;39.43;;;;;;;2.69;87.55;100724.00;5039242;28;20268;-78
2020/12/10 01:21:58;;;;;;;67.17;35.73;;;;;;;2.96;86.26;100718.19;5039845;28;20174;-80
2020/12/10 01:24:23;;;;;;;73.20;36.93;;;;;;;2.53;87.81;100726.75;5038886;28;20233;-80
2020/12/10 01:26:48;;;;;;;69.97;36.97;;;;;;;2.73;87.59;100724.09;5039336;28;20268;-79
2020/12/10 01:29:14;;;;;;;72.60;35.83;;;;;;;2.70;87.17;100724.84;5039363;28;20185;-79
2020/12/10 01:31:39;;;;;;;70.37;36.67;;;;;;;2.60;87.53;100725.28;5039045;28;20265;-80
2020/12/10 01:34:04;;;;;;;76.57;37.37;;;;;;;2.61;87.31;100725.38;5039709;28;20174;-82
2020/12/10 01:36:30;;;;;;;72.60;38.23;;;;;;;2.99;86.18;100718.31;5034222;28;20191;-82
2020/12/10 01:38:56;;;;;;;71.47;38.80;;;;;;;2.99;86.11;100708.03;5019332;28;20194;-78
2020/12/10 01:41:30;;;;;;;66.87;35.77;;;;;;;3.16;84.90;100710.38;5019133;28;20447;-75
2020/12/10 01:44:03;;;;;;;88.93;39.07;;;;;;;3.06;85.28;100705.69;5019220;28;20476;-75
2020/12/10 01:46:28;;;;;;;28.03;17.27;;;;;;;9.09;93.44;100684.06;5018077;28;20858;-70
2020/12/10 01:48:54;;;;;;;68.73;35.63;;;;;;;10.28;73.46;100678.59;5017990;28;20421;-69
2020/12/10 01:51:19;;;;;;;55.50;35.10;;;;;;;11.08;63.95;100672.28;5018631;28;20527;-72
2020/12/10 01:53:44;;;;;;;55.97;35.87;;;;;;;5.95;70.30;100695.53;5018586;28;20182;-76
2020/12/10 01:56:10;;;;;;;51.47;34.10;;;;;;;3.93;79.59;100704.66;5018610;28;20389;-74
2020/12/10 01:58:35;;;;;;;56.60;35.13;;;;;;;3.43;81.82;100700.25;5018788;28;20477;-75
2020/12/10 02:01:01;;;;;;;59.63;36.37;;;;;;;3.41;82.53;100701.91;5018413;28;20536;-75
2020/12/10 02:03:26;;;;;;;57.40;36.43;;;;;;;3.21;83.73;100693.41;5018267;28;20206;-74
2020/12/10 02:05:51;;;;;;;67.77;37.50;;;;;;;3.03;84.02;100693.56;5018695;28;20179;-75
2020/12/10 02:08:17;;;;;;;67.00;38.00;;;;;;;3.10;84.81;100694.69;5018312;28;20308;-77
2020/12/10 02:10:42;;;;;;;63.53;39.03;;;;;;;3.36;83.18;100688.84;5018236;28;20241;-77
2020/12/10 02:13:08;;;;;;;68.53;36.60;;;;;;;3.19;84.34;100679.59;5018626;28;20254;-78
2020/12/10 02:15:33;;;;;;;68.10;37.47;;;;;;;3.47;83.52;100690.94;5018820;28;20202;-77
2020/12/10 02:18:42;;;;;;;58.67;35.30;;;;;;;2.79;85.15;100680.63;5018758;28;20182;-80
2020/12/10 02:21:11;;;;;;;57.73;35.60;;;;;;;2.68;86.27;100681.03;5018696;28;20583;-79
2020/12/10 02:23:36;;;;;;;62.40;36.07;;;;;;;3.11;85.16;100691.28;5018092;28;20552;-77
2020/12/10 02:26:02;;;;;;;55.43;35.30;;;;;;;2.90;84.56;100681.03;5017992;28;20728;-78
2020/12/10 02:28:27;;;;;;;62.90;34.07;;;;;;;2.96;85.14;100676.97;5018273;28;20211;-79
2020/12/10 02:30:52;;;;;;;54.40;35.87;;;;;;;2.84;85.58;100676.50;5018889;28;20198;-77
2020/12/10 02:33:18;;;;;;;65.57;37.90;;;;;;;2.77;85.75;100669.34;5018686;28;20202;-78
2020/12/10 02:35:43;;;;;;;60.93;34.67;;;;;;;3.11;84.96;100660.38;5017967;28;20194;-78
2020/12/10 02:38:10;;;;;;;66.70;38.07;;;;;;;3.08;85.34;100663.72;5018302;28;20210;-79
2020/12/10 02:40:39;;;;;;;75.23;39.87;;;;;;;2.48;87.14;100662.22;5018081;28;20576;-78
2020/12/10 02:43:04;;;;;;;64.93;37.60;;;;;;;2.65;87.06;100662.91;5018246;28;20496;-76
2020/12/10 02:45:30;;;;;;;68.37;39.63;;;;;;;2.39;87.41;100666.97;5018264;28;20735;-78
2020/12/10 02:47:55;;;;;;;71.77;39.50;;;;;;;2.55;87.64;100668.50;5018315;28;20427;-77
2020/12/10 02:50:21;;;;;;;66.10;37.93;;;;;;;2.63;86.62;100661.09;5017997;28;20195;-79
2020/12/10 02:52:46;;;;;;;62.90;36.73;;;;;;;2.54;86.84;100653.84;5018198;28;20199;-78
2020/12/10 02:55:12;;;;;;;62.83;37.60;;;;;;;2.41;87.47;100649.91;5017865;28;20199;-78
2020/12/10 02:57:37;;;;;;;63.33;38.80;;;;;;;2.51;87.99;100643.44;5017680;28;20209;-79
2020/12/10 03:00:07;;;;;;;66.60;38.50;;;;;;;2.74;87.01;100646.94;5018114;28;20525;-79
2020/12/10 03:02:32;;;;;;;62.73;38.93;;;;;;;2.81;86.60;100645.50;5017393;28;20202;-79
2020/12/10 03:04:58;;;;;;;62.63;38.13;;;;;;;2.90;86.35;100645.84;5017747;28;20827;-78
2020/12/10 03:07:23;;;;;;;74.67;38.37;;;;;;;2.74;86.43;100644.38;5018264;28;20194;-79
2020/12/10 03:09:48;;;;;;;63.43;36.93;;;;;;;2.47;86.57;100639.00;5017831;28;20251;-78
2020/12/10 03:12:14;;;;;;;72.80;37.93;;;;;;;2.36;87.50;100643.69;5017455;28;20265;-77
2020/12/10 03:14:39;;;;;;;70.57;38.47;;;;;;;2.29;88.16;100640.00;5018719;28;20209;-79
2020/12/10 03:17:05;;;;;;;64.27;36.73;;;;;;;2.74;86.93;100638.34;5017543;28;20285;-79
2020/12/10 03:19:30;;;;;;;61.53;36.63;;;;;;;3.01;85.43;100638.53;5017930;28;20178;-78
2020/12/10 03:21:55;;;;;;;57.77;35.67;;;;;;;2.70;85.94;100637.34;5018018;28;20175;-78
2020/12/10 03:24:21;;;;;;;59.07;35.30;;;;;;;2.60;86.71;100638.69;5017120;28;20643;-77
2020/12/10 03:26:46;;;;;;;60.53;37.60;;;;;;;2.45;86.56;100631.22;5017769;28;20198;-77
2020/12/10 03:29:11;;;;;;;59.67;34.47;;;;;;;2.46;87.06;100630.41;5021365;28;20576;-74
2020/12/10 03:31:37;;;;;;;64.67;36.93;;;;;;;2.86;85.53;100625.97;5021226;28;20559;-76
2020/12/10 03:34:04;;;;;;;58.27;35.17;;;;;;;2.79;85.22;100626.56;5021190;28;20195;-76
2020/12/10 03:36:45;;;;;;;55.37;34.53;;;;;;;2.79;84.93;100614.53;5021865;28;20440;-78
2020/12/10 03:39:10;;;;;;;48.80;31.73;;;;;;;2.53;85.93;100621.25;5021352;28;20452;-77
2020/12/10 03:41:36;;;;;;;59.00;35.53;;;;;;;2.88;84.69;100620.88;5020990;28;20437;-78
2020/12/10 03:44:01;;;;;;;60.77;35.47;;;;;;;2.94;84.73;100621.13;5020630;28;20206;-75
2020/12/10 03:46:26;;;;;;;52.63;35.80;;;;;;;2.84;85.08;100622.44;5020548;28;20226;-75
2020/12/10 03:48:52;;;;;;;55.40;34.27;;;;;;;2.62;85.46;100615.56;5021440;28;20270;-74
2020/12/10 03:51:17;;;;;;;57.40;34.67;;;;;;;2.45;86.88;100625.16;5020835;28;20207;-83
2020/12/10 03:53:42;;;;;;;53.33;33.10;;;;;;;2.45;87.78;100625.16;5020747;28;20203;-77
2020/12/10 03:56:07;;;;;;;57.30;34.13;;;;;;;2.30;88.04;100622.84;5021201;28;20210;-78
2020/12/10 03:58:33;;;;;;;48.70;32.83;;;;;;;2.29;87.24;100615.97;5020701;28;20286;-75
2020/12/10 04:00:58;;;;;;;53.10;31.63;;;;;;;2.36;87.49;100616.25;5020695;28;20489;-75
2020/12/10 04:03:23;;;;;;;52.83;32.97;;;;;;;2.27;87.65;100613.31;5020948;28;20171;-75
2020/12/10 04:05:48;;;;;;;50.43;32.30;;;;;;;2.28;87.77;100609.94;5020509;28;20207;-78
2020/12/10 04:08:14;;;;;;;49.10;32.70;;;;;;;2.23;86.88;100611.44;5020851;28;20221;-78
2020/12/10 04:10:39;;;;;;;46.27;31.37;;;;;;;2.37;86.56;100612.03;5020903;28;20191;-78
2020/12/10 04:13:04;;;;;;;48.40;30.60;;;;;;;2.25;87.64;100603.81;5021012;28;20199;-79
2020/12/10 04:15:30;;;;;;;47.60;30.33;;;;;;;2.16;87.09;100612.00;5019769;28;20509;-75
2020/12/10 04:17:55;;;;;;;50.30;29.53;;;;;;;2.22;86.93;100608.81;5035894;28;20189;-79
2020/12/10 04:20:20;;;;;;;47.80;31.10;;;;;;;2.24;87.42;100620.91;5020047;28;20206;-75
2020/12/10 04:22:46;;;;;;;41.80;29.30;;;;;;;2.33;87.08;100610.13;5023791;28;20226;-74
2020/12/10 04:25:11;;;;;;;47.20;30.60;;;;;;;2.53;86.72;100611.81;5039866;28;20233;-75
2020/12/10 04:27:36;;;;;;;40.63;29.73;;;;;;;2.85;84.60;100614.75;5033935;28;20297;-75
2020/12/10 04:30:02;;;;;;;42.70;29.23;;;;;;;2.57;85.36;100617.06;5039723;28;20285;-76
2020/12/10 04:32:28;;;;;;;40.63;28.60;;;;;;;2.66;84.69;100626.03;5033381;28;20252;-77
2020/12/10 04:34:53;;;;;;;40.20;27.93;;;;;;;2.72;84.07;100625.44;5037840;28;20444;-75
2020/12/10 04:37:18;;;;;;;43.03;27.63;;;;;;;2.68;85.21;100619.28;5039738;28;20171;-74
2020/12/10 04:39:43;;;;;;;42.90;29.00;;;;;;;2.59;85.37;100618.91;5036599;28;20194;-75
2020/12/10 04:42:10;;;;;;;40.33;28.40;;;;;;;2.48;85.42;100622.75;5037869;28;20492;-74
2020/12/10 04:44:36;;;;;;;40.40;27.67;;;;;;;2.67;84.90;100627.81;5037645;28;20457;-77
2020/12/10 04:47:01;;;;;;;40.53;28.43;;;;;;;2.31;86.93;100622.03;5037689;28;20457;-76
2020/12/10 04:49:28;;;;;;;39.40;28.30;;;;;;;2.62;85.39;100624.16;5038325;28;20196;-73
2020/12/10 04:51:54;;;;;;;43.10;27.13;;;;;;;2.50;85.14;100627.13;5038380;28;20190;-75
2020/12/10 04:54:19;;;;;;;40.40;27.80;;;;;;;2.61;85.85;100622.44;5037551;28;20464;-77
2020/12/10 04:56:44;;;;;;;39.90;28.40;;;;;;;2.70;85.16;100625.34;5039124;28;20182;-78
2020/12/10 04:59:10;;;;;;;43.00;28.03;;;;;;;2.57;85.62;100620.53;5039795;28;20558;-78
2020/12/10 05:01:35;;;;;;;43.70;27.90;;;;;;;2.61;85.28;100617.28;5039152;28;20182;-77
2020/12/10 05:04:00;;;;;;;41.23;27.93;;;;;;;2.83;85.00;100616.41;5039399;28;20182;-77
2020/12/10 05:06:26;;;;;;;41.67;27.60;;;;;;;2.47;85.34;100618.41;5038860;28;20235;-79
2020/12/10 05:08:51;;;;;;;42.53;28.30;;;;;;;2.35;86.51;100609.38;5039473;28;20560;-79
2020/12/10 05:11:32;;;;;;;40.17;26.73;;;;;;;2.53;85.91;100616.09;5038800;28;20575;-78
2020/12/10 05:13:57;;;;;;;43.30;26.10;;;;;;;2.57;85.08;100617.06;5039192;28;20271;-77
2020/12/10 05:16:23;;;;;;;39.27;26.07;;;;;;;2.18;86.49;100618.97;5038971;28;20806;-75
2020/12/10 05:18:48;;;;;;;41.67;28.07;;;;;;;2.31;86.97;100607.50;5039041;28;20277;-75
2020/12/10 05:21:15;;;;;;;42.03;28.23;;;;;;;2.31;86.58;100622.03;5038893;28;20281;-75
2020/12/10 05:23:41;;;;;;;41.07;26.20;;;;;;;2.08;87.49;100626.22;5038503;28;20240;-74
2020/12/10 05:26:08;;;;;;;40.40;27.80;;;;;;;2.51;86.16;100626.31;5039217;28;20433;-76
2020/12/10 05:28:44;;;;;;;43.80;27.80;;;;;;;2.36;86.63;100621.41;5038395;28;20511;-75
2020/12/10 05:31:14;;;;;;;40.70;27.00;;;;;;;2.60;85.82;100622.34;5038491;28;20871;-75
2020/12/10 05:33:58;;;;;;;40.67;26.67;;;;;;;2.64;85.58;100624.25;5038399;28;20711;-74
2020/12/10 05:36:25;;;;;;;43.30;28.60;;;;;;;2.36;86.40;100616.25;5038502;28;20524;-72
2020/12/10 05:38:57;;;;;;;42.00;28.53;;;;;;;2.48;85.91;100621.03;5038802;28;20509;-76
2020/12/10 05:41:24;;;;;;;45.43;27.80;;;;;;;2.51;85.83;100616.00;5038474;28;20464;-74
2020/12/10 05:43:50;;;;;;;45.40;28.10;;;;;;;2.53;85.59;100608.38;5038308;28;20440;-75
2020/12/10 05:46:17;;;;;;;48.93;28.47;;;;;;;2.29;86.43;100603.97;5038400;28;20432;-75
2020/12/10 05:48:44;;;;;;;45.13;28.80;;;;;;;2.36;86.78;100610.25;5038204;28;20217;-75
2020/12/10 05:51:14;;;;;;;48.83;31.40;;;;;;;2.27;86.88;100608.16;5037832;28;20472;-73
2020/12/10 05:53:41;;;;;;;45.30;28.60;;;;;;;2.10;87.37;100615.19;5038224;28;20684;-75
2020/12/10 05:56:10;;;;;;;48.60;31.03;;;;;;;2.47;86.92;100614.13;5038732;28;20425;-76
2020/12/10 05:58:46;;;;;;;47.63;28.90;;;;;;;2.38;86.35;100615.47;5037705;28;20515;-75
2020/12/10 06:01:16;;;;;;;50.40;30.40;;;;;;;2.51;86.83;100620.28;5037888;28;20421;-76
2020/12/10 06:03:42;;;;;;;49.63;30.10;;;;;;;2.50;86.73;100615.94;5037174;28;20447;-74
2020/12/10 06:06:07;;;;;;;53.67;28.80;;;;;;;2.48;86.40;100625.31;5036977;28;20843;-73
2020/12/10 06:08:37;;;;;;;48.87;28.93;;;;;;;2.33;86.98;100621.28;5037891;28;20201;-77
2020/12/10 06:11:02;;;;;;;49.33;29.10;;;;;;;2.17;87.46;100629.19;5037829;28;20170;-74
2020/12/10 06:13:28;;;;;;;52.27;31.83;;;;;;;2.26;88.30;100623.53;5037697;28;20437;-76
2020/12/10 06:15:54;;;;;;;50.77;31.10;;;;;;;2.42;87.37;100625.97;5037117;28;20193;-73
2020/12/10 06:18:19;;;;;;;46.07;27.80;;;;;;;2.16;87.87;100628.31;5037675;28;20487;-75
2020/12/10 06:20:45;;;;;;;53.83;29.90;;;;;;;2.26;88.29;100619.28;5038015;28;20317;-75
2020/12/10 06:23:23;;;;;;;58.60;30.40;;;;;;;1.88;89.06;100626.28;5038482;28;20174;-75
2020/12/10 06:25:48;;;;;;;56.40;32.30;;;;;;;1.84;90.00;100624.34;5037690;28;20490;-75
2020/12/10 06:28:18;;;;;;;62.33;33.53;;;;;;;2.06;90.22;100622.69;5037390;28;20484;-76
2020/12/10 06:31:05;;;;;;;56.90;32.70;;;;;;;2.06;89.39;100626.19;5037536;28;20208;-75
2020/12/10 06:33:45;;;;;;;64.23;33.43;;;;;;;1.94;89.60;100629.09;5036962;28;20536;-75
2020/12/10 06:36:24;;;;;;;67.43;34.63;;;;;;;2.00;89.16;100639.66;5037221;28;20453;-74
2020/12/10 06:38:50;;;;;;;64.17;34.10;;;;;;;2.12;89.12;100625.56;5037418;28;20425;-76
2020/12/10 06:41:16;;;;;;;61.00;33.60;;;;;;;2.20;87.86;100629.31;5037385;28;20504;-75
2020/12/10 06:43:41;;;;;;;57.53;32.83;;;;;;;2.24;88.72;100633.78;5037179;28;20914;-74
2020/12/10 06:46:07;;;;;;;63.67;33.27;;;;;;;2.10;87.77;100632.34;5037676;28;20197;-74
2020/12/10 06:48:50;;;;;;;56.87;32.37;;;;;;;2.07;88.61;100627.03;5036627;28;20229;-74
2020/12/10 06:51:17;;;;;;;61.93;31.50;;;;;;;2.17;88.17;100626.63;5037132;28;20177;-74
2020/12/10 06:54:05;;;;;;;60.23;31.57;;;;;;;2.12;88.22;100630.69;5037007;28;20421;-74
2020/12/10 06:56:31;;;;;;;53.17;29.20;;;;;;;2.07;88.42;100627.94;5037089;28;20483;-74
2020/12/10 06:58:59;;;;;;;54.50;30.77;;;;;;;2.05;89.10;100623.53;5036205;28;20428;-74
2020/12/10 07:01:35;;;;;;;46.07;26.27;;;;;;;2.13;88.53;100637.59;5035333;28;20495;-75
2020/12/10 07:04:31;;;;;;;49.50;27.97;;;;;;;2.04;88.33;100629.50;5037014;28;20827;-76
2020/12/10 07:07:19;;;;;;;43.63;25.03;;;;;;;2.18;87.57;100636.09;5037271;28;20888;-77
2020/12/10 07:09:50;;;;;;;44.63;27.47;;;;;;;2.32;86.70;100634.97;5036964;28;20425;-75
2020/12/10 07:12:20;;;;;;;44.40;25.30;;;;;;;2.00;87.96;100631.03;5037077;28;20437;-77
2020/12/10 07:14:46;;;;;;;45.87;24.77;;;;;;;1.74;89.46;100643.66;5037048;28;20408;-77
2020/12/10 07:17:11;;;;;;;40.17;26.17;;;;;;;1.78;89.13;100642.09;5037073;28;20443;-76
2020/12/10 07:19:37;;;;;;;40.10;24.40;;;;;;;1.84;88.87;100634.66;5037157;28;20566;-76
2020/12/10 07:22:02;;;;;;;42.90;26.43;;;;;;;2.28;87.55;100645.94;5036834;28;20201;-76
2020/12/10 07:24:27;;;;;;;42.70;26.53;;;;;;;2.23;87.48;100650.00;5036779;28;20237;-75
2020/12/10 07:26:53;;;;;;;49.17;25.60;;;;;;;2.00;88.66;100652.50;5037325;28;20275;-74
2020/12/10 07:29:18;;;;;;;47.30;25.83;;;;;;;2.16;88.57;100656.59;5036722;28;20543;-75
2020/12/10 07:31:43;;;;;;;48.73;26.43;;;;;;;2.07;88.37;100657.91;5036975;28;20193;-77
2020/12/10 07:34:11;;;;;;;46.63;26.20;;;;;;;2.07;88.14;100657.91;5037375;28;20600;-74
2020/12/10 07:36:45;;;;;;;51.07;25.50;;;;;;;1.92;88.31;100658.13;5036211;28;20198;-75
2020/12/10 07:39:12;;;;;;;45.30;24.13;;;;;;;1.96;87.79;100658.34;5036874;28;20490;-76
2020/12/10 07:41:38;;;;;;;46.83;26.90;;;;;;;1.78;87.26;100660.97;5036955;28;20487;-76
2020/12/10 07:44:03;;;;;;;39.27;25.67;;;;;;;1.76;87.49;100659.13;5036466;28;20421;-76
2020/12/10 07:46:35;;;;;;;47.30;27.17;;;;;;;1.74;87.93;100653.94;5036085;28;20467;-74
2020/12/10 07:49:00;;;;;;;43.50;28.17;;;;;;;1.91;86.70;100651.22;5036442;28;20274;-75
2020/12/10 07:51:25;;;;;;;39.87;26.30;;;;;;;1.96;86.29;100660.00;5036474;28;20467;-74
2020/12/10 07:54:00;;;;;;;46.57;29.07;;;;;;;1.89;86.72;100658.88;5036718;28;20574;-75
2020/12/10 07:56:27;;;;;;;45.17;29.00;;;;;;;1.90;86.98;100659.75;5035752;28;20184;-73
2020/12/10 07:59:07;;;;;;;50.70;28.03;;;;;;;1.92;86.77;100650.41;5036475;28;20679;-75
2020/12/10 08:01:37;;;;;;;55.77;31.47;;;;;;;1.97;86.61;100657.50;5018842;28;20423;-75
2020/12/10 08:04:13;;;;;;;56.30;32.87;;;;;;;1.91;87.08;100661.50;5036231;28;20449;-80
2020/12/10 08:06:40;;;;;;;59.27;31.57;;;;;;;1.96;87.13;100650.63;5036252;28;20724;-75
2020/12/10 08:09:06;;;;;;;60.87;32.47;;;;;;;1.74;87.72;100655.63;5036433;28;20429;-75
2020/12/10 08:11:32;;;;;;;58.90;33.50;;;;;;;1.98;87.07;100648.97;5036305;28;20440;-73
2020/12/10 08:14:08;;;;;;;59.17;33.23;;;;;;;1.76;87.54;100652.31;5038662;28;20902;-74
2020/12/10 08:16:41;;;;;;;67.70;34.47;;;;;;;1.52;89.04;100644.41;5039940;28;20180;-73
2020/12/10 08:19:10;;;;;;;64.10;34.23;;;;;;;1.58;89.12;100636.94;5039818;28;20888;-77
2020/12/10 08:21:36;;;;;;;63.73;33.80;;;;;;;1.79;88.44;100641.31;5039739;28;20413;-74
2020/12/10 08:24:01;;;;;;;56.10;30.23;;;;;;;1.74;88.50;100653.06;5039584;28;20487;-72
2020/12/10 08:26:26;;;;;;;58.87;34.27;;;;;;;1.70;88.60;100651.19;5040033;28;20273;-75
2020/12/10 08:28:56;;;;;;;35.27;21.10;;;;;;;9.26;84.89;100620.16;5038693;28;20202;-73
2020/12/10 08:31:22;;;;;;;52.00;33.00;;;;;;;5.31;72.83;100632.53;5039469;28;20175;-73
2020/12/10 08:33:48;;;;;;;52.93;32.60;;;;;;;2.97;81.73;100642.69;5039865;28;20534;-72
2020/12/10 08:36:33;;;;;;;56.20;34.60;;;;;;;2.44;83.08;100641.44;5039377;28;20503;-72
2020/12/10 08:39:02;;;;;;;57.67;32.67;;;;;;;2.18;84.68;100651.53;5039569;28;20174;-71
2020/12/10 08:41:33;;;;;;;63.93;34.80;;;;;;;2.16;85.75;100648.00;5039251;28;20431;-71
2020/12/10 08:44:00;;;;;;;58.63;35.73;;;;;;;1.98;86.75;100637.81;5039381;28;20435;-71
2020/12/10 08:46:26;;;;;;;57.10;33.90;;;;;;;1.69;87.63;100634.84;5039337;28;20425;-71
2020/12/10 08:48:53;;;;;;;64.07;35.07;;;;;;;1.80;87.84;100641.38;5038441;28;20534;-71
2020/12/10 08:51:18;;;;;;;53.90;26.83;;;;;;;1.59;87.79;100649.00;5039620;28;20162;-71
2020/12/10 08:53:52;;;;;;;75.93;36.60;;;;;;;1.73;87.58;100644.47;5039088;28;20432;-71
2020/12/10 08:56:22;;;;;;;73.10;34.77;;;;;;;1.55;88.82;100639.41;5038898;28;20186;-71
2020/12/10 08:58:48;;;;;;;77.97;34.47;;;;;;;1.61;88.29;100642.25;5039075;28;20694;-71
2020/12/10 09:01:13;;;;;;;74.37;36.30;;;;;;;1.41;89.30;100645.59;5038392;28;20508;-71
2020/12/10 09:03:38;;;;;;;74.47;36.60;;;;;;;1.60;89.42;100645.63;5039521;28;20504;-70
2020/12/10 09:06:04;;;;;;;81.30;39.20;;;;;;;1.83;88.78;100643.19;5039094;28;20249;-72
2020/12/10 09:08:29;;;;;;;88.17;38.47;;;;;;;1.41;89.22;100637.88;5038807;28;20202;-71
2020/12/10 09:10:54;;;;;;;71.97;36.83;;;;;;;1.87;89.10;100639.03;5038682;28;20630;-71
2020/12/10 09:13:23;;;;;;;79.90;39.23;;;;;;;1.53;88.89;100633.31;5038803;28;20227;-71
2020/12/10 09:15:48;;;;;;;73.43;38.83;;;;;;;1.84;88.20;100635.53;5038822;28;20197;-71
2020/12/10 09:18:14;;;;;;;65.43;34.70;;;;;;;1.77;86.74;100627.50;5039280;28;20527;-71
2020/12/10 09:20:40;;;;;;;60.70;33.70;;;;;;;1.64;87.10;100637.25;5037754;28;20210;-71
2020/12/10 09:23:06;;;;;;;57.70;34.00;;;;;;;1.72;87.30;100626.41;5038451;28;20183;-72
2020/12/10 09:25:31;;;;;;;58.40;33.57;;;;;;;1.93;86.67;100623.91;5038036;28;20510;-71
2020/12/10 09:27:57;;;;;;;53.83;29.73;;;;;;;1.69;86.35;100634.84;5038557;28;20300;-71
2020/12/10 09:30:22;;;;;;;59.40;33.27;;;;;;;1.94;86.46;100623.09;5037736;28;20217;-71
2020/12/10 09:32:47;;;;;;;58.77;31.47;;;;;;;1.80;86.54;100619.91;5038785;28;20170;-71
2020/12/10 09:35:13;;;;;;;50.80;30.87;;;;;;;1.74;86.81;100628.22;5038386;28;20170;-70
2020/12/10 09:37:39;;;;;;;51.13;30.20;;;;;;;1.83;86.51;100625.19;5038375;28;20178;-71
2020/12/10 09:40:07;;;;;;;55.10;31.43;;;;;;;1.65;86.48;100630.41;5037920;28;20170;-71
2020/12/10 09:42:36;;;;;;;51.70;31.00;;;;;;;1.68;86.97;100615.13;5038243;28;20421;-71
2020/12/10 09:45:02;;;;;;;50.23;28.70;;;;;;;1.85;85.50;100613.28;5038264;28;20880;-71
2020/12/10 09:47:27;;;;;;;45.77;28.40;;;;;;;1.89;85.42;100611.72;5038555;28;20493;-70
2020/12/10 09:49:52;;;;;;;53.47;28.90;;;;;;;1.50;86.26;100622.91;5037933;28;20256;-72
2020/12/10 09:52:18;;;;;;;42.87;26.40;;;;;;;1.92;85.82;100623.03;5037890;28;20265;-71
2020/12/10 09:57:33;;;;;;;45.50;27.63;;;;;;;1.88;85.36;100621.13;5038086;28;20537;-69
2020/12/10 09:59:59;;;;;;;48.00;29.63;;;;;;;2.09;84.23;100622.84;5037850;28;20420;-70
2020/12/10 10:02:25;;;;;;;46.30;29.57;;;;;;;2.09;84.96;100620.28;5037954;28;20900;-71
2020/12/10 10:04:51;;;;;;;50.13;30.60;;;;;;;2.08;84.88;100613.38;5037677;28;20503;-70
2020/12/10 10:07:16;;;;;;;49.17;30.20;;;;;;;2.23;84.05;100608.84;5037920;28;20266;-71
2020/12/10 10:09:42;;;;;;;47.60;29.50;;;;;;;1.97;84.80;100611.22;5037585;28;20297;-69
2020/12/10 10:12:08;;;;;;;49.83;30.40;;;;;;;2.13;85.08;100612.75;5037663;28;20500;-71
2020/12/10 10:14:35;;;;;;;60.33;31.97;;;;;;;1.84;86.04;100603.78;5038066;28;20257;-70
2020/12/10 10:17:00;;;;;;;47.60;29.63;;;;;;;2.09;86.13;100615.16;5037632;28;20699;-70
2020/12/10 10:19:26;;;;;;;55.13;32.17;;;;;;;1.79;86.84;100616.47;5037379;28;20417;-71
2020/12/10 10:21:51;;;;;;;56.03;32.10;;;;;;;2.17;85.62;100609.50;5037190;28;20269;-71
2020/12/10 10:24:16;;;;;;;52.50;32.70;;;;;;;2.30;85.12;100607.41;5037309;28;20227;-71
2020/12/10 10:26:43;;;;;;;55.07;31.93;;;;;;;2.23;84.50;100598.56;5036342;28;20528;-71
2020/12/10 10:29:10;;;;;;;58.63;33.23;;;;;;;1.77;86.54;100606.94;5037513;28;20175;-72
2020/12/10 10:31:35;;;;;;;56.90;32.47;;;;;;;1.64;87.45;100600.41;5037548;28;20424;-70
2020/12/10 10:34:01;;;;;;;63.23;34.03;;;;;;;1.55;88.46;100590.59;5037219;28;20423;-71
2020/12/10 10:36:26;;;;;;;59.43;35.03;;;;;;;1.88;86.92;100589.41;5037845;28;20174;-70
2020/12/10 10:38:52;;;;;;;65.30;38.20;;;;;;;2.01;86.50;100592.53;5037145;28;20174;-70
2020/12/10 10:41:17;;;;;;;60.80;34.63;;;;;;;1.81;85.82;100586.59;5037199;28;20192;-71
2020/12/10 10:43:42;;;;;;;64.50;34.50;;;;;;;1.85;87.26;100583.31;5037626;28;20816;-70
2020/12/10 10:46:08;;;;;;;66.40;36.80;;;;;;;1.62;87.62;100587.47;5037128;28;20189;-70
2020/12/10 10:48:33;;;;;;;69.03;34.20;;;;;;;1.63;87.94;100578.94;5036885;28;20285;-71
2020/12/10 10:50:58;;;;;;;64.13;36.00;;;;;;;1.62;87.65;100576.31;5037347;28;20173;-70
2020/12/10 10:53:24;;;;;;;55.13;32.90;;;;;;;1.49;87.27;100568.06;5037102;28;20185;-71
2020/12/10 10:55:49;;;;;;;63.70;34.67;;;;;;;1.61;87.67;100567.75;5036998;28;20224;-70
2020/12/10 10:58:15;;;;;;;67.63;34.07;;;;;;;1.59;87.36;100571.91;5037229;28;20166;-71
2020/12/10 11:00:40;;;;;;;79.13;38.20;;;;;;;1.95;87.32;100564.03;5036762;28;20260;-70
2020/12/10 11:03:06;;;;;;;62.20;33.90;;;;;;;1.80;85.96;100565.94;5036887;28;20585;-71
2020/12/10 11:05:31;;;;;;;65.67;35.50;;;;;;;2.05;86.09;100566.97;5037213;28;20581;-71
2020/12/10 11:07:57;;;;;;;71.27;38.00;;;;;;;2.24;84.69;100568.59;5036829;28;20210;-70
2020/12/10 11:10:23;;;;;;;66.33;35.57;;;;;;;2.14;84.57;100565.66;5036668;28;20181;-69
2020/12/10 11:12:49;;;;;;;71.67;38.40;;;;;;;2.30;84.03;100562.00;5037285;28;20190;-70
2020/12/10 11:15:15;;;;;;;68.70;36.17;;;;;;;2.38;83.79;100561.44;5036856;28;20425;-70
2020/12/10 11:17:40;;;;;;;71.63;37.77;;;;;;;2.46;83.43;100560.03;5036861;28;20424;-71
2020/12/10 11:20:06;;;;;;;65.30;36.53;;;;;;;2.21;84.16;100564.22;5036254;28;20189;-69